KACK

Nantucket Memorial Airport

Nantucket, Massachusetts, USA
METAR KACK 241053Z 05008KT 10SM CLR 14/11 A3041 RMK AO2 SLP297 T01440111
Observed Flight Rules
Sep-24 @ 10:53 UTC (53 minutes ago) Visual Flight Rules
Wind Visibility Clouds
50° at 8 knots 10 miles
  • Clear skies
Temperatures Readings
Current 14°C / 57°F
Dewpoint 11°C / 52°F
Humidity 82%
Altimeter 30.41" Hg
Pressure 1029.7 hPa
Elevation 16
METAR KACK 241053Z 05008KT 10SM CLR 14/11 A3041 RMK AO2 SLP297 T01440111
Observed Flight Rules
Sep-24 @ 10:53 UTC
(53 minutes ago)
VFR
Wind Visibility
50° at 8 knots 10 miles
Clouds
  • Clear skies
Temperature Dewpoint
14°C / 57°F 11°C / 52°F
Humidity Altimeter Pressure
82% 30.41" Hg 1029.7 hPa